createdAt,value
2024-02-04T00:02:00.478Z,99595.94
2024-02-04T00:07:03.991Z,99586.72
2024-02-04T00:12:08.207Z,99582.97
2024-02-04T00:17:11.193Z,99599.34
2024-02-04T00:22:14.355Z,99601.69
2024-02-04T00:27:17.201Z,99608.97
2024-02-04T00:32:20.345Z,99611.88
2024-02-04T00:37:23.375Z,99606.53
2024-02-04T00:42:26.303Z,99598.59
2024-02-04T00:47:29.260Z,99607.19
2024-02-04T00:52:32.179Z,99606.28
2024-02-04T00:57:35.067Z,99610.91
2024-02-04T01:02:37.933Z,99605.31
2024-02-04T01:07:40.785Z,99610.94
2024-02-04T01:12:43.719Z,99605.03
2024-02-04T01:17:46.767Z,99594.66
2024-02-04T01:22:49.608Z,99586.91
2024-02-04T01:27:52.782Z,99584.56
2024-02-04T01:32:56.101Z,99599.53
2024-02-04T01:37:58.991Z,99591.53
2024-02-04T01:43:02.109Z,99591.19
2024-02-04T01:48:06.804Z,99593.97
2024-02-04T01:53:10.437Z,99604.25
2024-02-04T01:58:13.351Z,99598.13
2024-02-04T02:03:17.329Z,99598.22
2024-02-04T02:08:22.177Z,99590.09
2024-02-04T02:13:30.776Z,99594.06
2024-02-04T02:18:48.058Z,99595.56
2024-02-04T02:24:25.958Z,99587.41
2024-02-04T02:29:28.979Z,99575.75
2024-02-04T02:34:38.740Z,99560.34
2024-02-04T02:39:53.782Z,99572.13
2024-02-04T02:44:58.551Z,99572.94
2024-02-04T02:50:03.070Z,99575.75
2024-02-04T02:55:06.727Z,99566.66
2024-02-04T03:00:10.667Z,99569.22
2024-02-04T03:05:16.769Z,99572.00
2024-02-04T03:10:19.790Z,99579.38
2024-02-04T03:15:22.883Z,99567.47
2024-02-04T03:20:25.747Z,99571.13
2024-02-04T03:25:30.525Z,99566.59
2024-02-04T03:30:34.006Z,99565.09
2024-02-04T03:35:37.793Z,99552.53
2024-02-04T03:40:44.312Z,99553.28
2024-02-04T03:45:50.009Z,99565.19
2024-02-04T03:50:54.321Z,99583.63
2024-02-04T03:55:57.267Z,99577.19
2024-02-04T04:01:01.495Z,99585.66
2024-02-04T04:06:04.519Z,99591.56
2024-02-04T04:11:10.858Z,99584.56
2024-02-04T04:16:14.054Z,99591.56
2024-02-04T04:21:17.783Z,99584.56
2024-02-04T04:26:20.771Z,99595.28
2024-02-04T04:31:24.206Z,99601.19
2024-02-04T04:36:27.145Z,99602.59
2024-02-04T04:41:30.088Z,99611.22
2024-02-04T04:46:33.444Z,99617.91
2024-02-04T04:51:36.515Z,99617.28
2024-02-04T04:56:43.407Z,99613.75
2024-02-04T05:01:52.497Z,99607.94
2024-02-04T05:06:55.645Z,99613.28
2024-02-04T05:11:58.579Z,99608.34
2024-02-04T05:17:02.141Z,99611.31
2024-02-04T05:22:05.348Z,99626.31
2024-02-04T05:27:08.365Z,99614.34
2024-02-04T05:32:11.144Z,99622.00
2024-02-04T05:37:14.467Z,99620.72
2024-02-04T05:42:17.513Z,99619.56
2024-02-04T05:47:20.393Z,99618.81
2024-02-04T05:52:23.586Z,99628.19
2024-02-04T05:57:26.426Z,99625.94
2024-02-04T06:02:29.449Z,99634.47
2024-02-04T06:07:33.272Z,99626.00
2024-02-04T06:12:36.173Z,99621.50
2024-02-04T06:17:39.238Z,99632.56
2024-02-04T06:22:42.121Z,99634.91
2024-02-04T06:27:45.386Z,99635.94
2024-02-04T06:32:51.263Z,99621.88
2024-02-04T06:37:54.342Z,99626.00
2024-02-04T06:42:57.455Z,99633.69
2024-02-04T06:48:01.753Z,99628.53
2024-02-04T06:53:05.102Z,99636.81
2024-02-04T06:58:08.136Z,99635.47
2024-02-04T07:03:11.398Z,99620.66
2024-02-04T07:08:14.903Z,99617.38
2024-02-04T07:13:17.853Z,99612.47
2024-02-04T07:18:23.482Z,99614.81
2024-02-04T07:23:26.867Z,99616.41
2024-02-04T07:28:30.104Z,99610.22
2024-02-04T07:33:33.398Z,99604.88
2024-02-04T07:38:36.528Z,99605.06
2024-02-04T07:43:39.652Z,99610.53
2024-02-04T07:48:43.234Z,99597.22
2024-02-04T07:53:47.290Z,99603.81
2024-02-04T07:58:50.337Z,99600.91
2024-02-04T08:03:53.642Z,99592.81
2024-02-04T08:08:56.873Z,99601.66
2024-02-04T08:14:00.745Z,99609.69
2024-02-04T08:19:03.845Z,99613.47
2024-02-04T08:24:09.396Z,99616.69
2024-02-04T08:29:12.859Z,99616.88
2024-02-04T08:34:16.277Z,99602.22
2024-02-04T08:39:19.460Z,99595.97
2024-02-04T08:44:32.150Z,99593.13
2024-02-04T08:49:42.186Z,99592.78
2024-02-04T08:54:46.182Z,99586.38
2024-02-04T08:59:49.453Z,99585.09
2024-02-04T09:04:52.649Z,99582.19
2024-02-04T09:09:56.320Z,99570.41
2024-02-04T09:14:59.787Z,99559.81
2024-02-04T09:20:03.400Z,99551.09
2024-02-04T09:25:08.425Z,99551.53
2024-02-04T09:30:13.165Z,99557.16
2024-02-04T09:35:17.446Z,99542.34
2024-02-04T09:40:34.306Z,99544.34
2024-02-04T09:46:13.174Z,99526.66
2024-02-04T09:51:24.005Z,99536.22
2024-02-04T09:56:34.221Z,99515.28
2024-02-04T10:01:38.124Z,99527.00
2024-02-04T10:06:47.820Z,99507.28
2024-02-04T10:11:52.196Z,99493.28
2024-02-04T10:16:56.127Z,99486.47
2024-02-04T10:22:09.591Z,99490.28
2024-02-04T10:27:22.584Z,99484.06
2024-02-04T10:32:42.213Z,99494.69
2024-02-04T10:37:57.642Z,99469.00
2024-02-04T10:43:12.640Z,99467.84
2024-02-04T10:48:26.094Z,99465.38
2024-02-04T10:53:39.106Z,99463.56
2024-02-04T10:58:44.664Z,99451.06
2024-02-04T11:03:57.969Z,99447.84
2024-02-04T11:09:12.500Z,99443.66
2024-02-04T11:14:21.660Z,99422.69
2024-02-04T11:19:35.223Z,99408.69
2024-02-04T11:25:37.079Z,99396.72
2024-02-04T11:30:40.626Z,99393.13
2024-02-04T11:35:43.909Z,99380.81
2024-02-04T11:40:47.872Z,99378.00
2024-02-04T11:45:55.189Z,99369.38
2024-02-04T11:51:00.852Z,99371.91
2024-02-04T11:56:05.528Z,99367.88
2024-02-04T12:01:15.386Z,99359.84
2024-02-04T12:06:18.507Z,99340.25
2024-02-04T12:11:22.264Z,99350.97
2024-02-04T12:16:25.645Z,99336.03
2024-02-04T12:21:28.550Z,99333.38
2024-02-04T12:26:31.921Z,99325.75
2024-02-04T12:31:34.832Z,99313.25
2024-02-04T12:36:37.699Z,99300.72
2024-02-04T12:41:42.937Z,99297.72
2024-02-04T12:46:45.862Z,99289.25
2024-02-04T12:51:48.804Z,99276.44
2024-02-04T12:56:58.985Z,99259.16
2024-02-04T13:02:36.073Z,99246.31
2024-02-04T13:07:39.362Z,99243.97
2024-02-04T13:12:43.035Z,99238.59
2024-02-04T13:17:50.184Z,99238.59
2024-02-04T13:22:58.871Z,99238.59
2024-02-04T13:28:02.470Z,99234.69
2024-02-04T13:33:07.644Z,99236.34
2024-02-04T13:38:10.799Z,99220.09
2024-02-04T13:43:13.613Z,99212.94
2024-02-04T13:48:19.415Z,99217.38
2024-02-04T13:53:22.878Z,99208.16
2024-02-04T13:58:25.999Z,99223.00
2024-02-04T14:03:31.157Z,99221.81
2024-02-04T14:08:36.540Z,99206.91
2024-02-04T14:13:40.159Z,99211.53
2024-02-04T14:18:47.712Z,99210.69
2024-02-04T14:23:50.726Z,99206.03
2024-02-04T14:28:54.435Z,99213.38
2024-02-04T14:33:58.196Z,99188.75
2024-02-04T14:39:01.487Z,99185.31
2024-02-04T14:44:05.917Z,99184.28
2024-02-04T14:49:09.148Z,99175.94
2024-02-04T14:54:13.599Z,99190.41
2024-02-04T14:59:22.091Z,99187.09
2024-02-04T15:04:34.719Z,99193.69
2024-02-04T15:09:39.073Z,99206.03
2024-02-04T15:14:42.790Z,99216.84
2024-02-04T15:19:47.428Z,99206.72
2024-02-04T15:24:52.315Z,99206.28
2024-02-04T15:29:57.184Z,99199.38
2024-02-04T15:35:00.456Z,99193.81
2024-02-04T15:40:03.343Z,99197.94
2024-02-04T15:45:07.163Z,99208.34
2024-02-04T15:50:11.113Z,99206.56
2024-02-04T15:55:15.094Z,99215.34
2024-02-04T16:00:27.810Z,99211.50
2024-02-04T16:05:34.791Z,99217.03
2024-02-04T16:10:40.318Z,99219.69
2024-02-04T16:15:47.543Z,99232.03
2024-02-04T16:20:50.417Z,99220.28
2024-02-04T16:25:53.364Z,99228.97
2024-02-04T16:30:56.264Z,99232.41
2024-02-04T16:36:00.484Z,99240.34
2024-02-04T16:41:03.763Z,99239.28
2024-02-04T16:46:09.283Z,99226.47
2024-02-04T16:51:14.597Z,99231.31
2024-02-04T16:56:24.625Z,99230.06
2024-02-04T17:01:28.127Z,99223.69
2024-02-04T17:06:33.603Z,99247.03
2024-02-04T17:11:39.879Z,99233.63
2024-02-04T17:17:05.073Z,99227.09
2024-02-04T17:22:28.108Z,99217.66
2024-02-04T17:27:36.956Z,99214.25
2024-02-04T17:32:42.647Z,99211.91
2024-02-04T17:37:47.489Z,99212.06
2024-02-04T17:42:52.833Z,99203.75
2024-02-04T17:48:02.920Z,99201.56
2024-02-04T17:53:08.363Z,99201.78
2024-02-04T17:58:12.164Z,99207.41
2024-02-04T18:03:15.379Z,99203.06
2024-02-04T18:08:18.595Z,99202.09
2024-02-04T18:13:22.241Z,99194.63
2024-02-04T18:18:25.544Z,99195.72
2024-02-04T18:23:28.601Z,99193.22
2024-02-04T18:28:31.650Z,99194.06
2024-02-04T18:33:35.594Z,99183.00
2024-02-04T18:38:39.318Z,99169.69
2024-02-04T18:43:43.116Z,99183.19
2024-02-04T18:48:49.598Z,99185.53
2024-02-04T18:53:55.102Z,99175.91
2024-02-04T18:58:58.677Z,99156.75
2024-02-04T19:04:28.950Z,99155.81
2024-02-04T19:09:33.567Z,99163.72
2024-02-04T19:14:38.417Z,99172.66
2024-02-04T19:19:52.292Z,99174.72
2024-02-04T19:24:58.799Z,99176.66
2024-02-04T19:30:01.873Z,99169.56
2024-02-04T19:35:05.884Z,99168.94
2024-02-04T19:40:13.433Z,99176.38
2024-02-04T19:45:18.469Z,99174.28
2024-02-04T19:50:22.105Z,99174.03
2024-02-04T19:55:25.769Z,99167.56
2024-02-04T20:00:29.213Z,99171.75
2024-02-04T20:05:32.750Z,99165.94
2024-02-04T20:10:37.935Z,99163.75
2024-02-04T20:15:41.638Z,99160.63
2024-02-04T20:20:45.095Z,99144.34
2024-02-04T20:25:49.773Z,99152.50
2024-02-04T20:36:42.086Z,99153.91
2024-02-04T20:41:50.765Z,99139.03
2024-02-04T20:46:57.254Z,99127.09
2024-02-04T20:52:00.789Z,99126.22
2024-02-04T20:57:04.617Z,99136.19
2024-02-04T21:02:09.422Z,99137.47
2024-02-04T21:07:12.545Z,99142.34
2024-02-04T21:12:15.961Z,99130.44
2024-02-04T21:17:24.262Z,99134.72
2024-02-04T21:22:27.766Z,99124.47
2024-02-04T21:27:30.674Z,99133.06
2024-02-04T21:32:33.792Z,99115.00
2024-02-04T21:37:36.670Z,99114.38
2024-02-04T21:42:40.817Z,99109.06
2024-02-04T21:47:43.869Z,99112.94
2024-02-04T21:52:46.730Z,99113.84
2024-02-04T21:57:49.527Z,99115.28
2024-02-04T22:02:54.014Z,99114.09
2024-02-04T22:07:57.058Z,99106.50
2024-02-04T22:13:00.047Z,99094.66
2024-02-04T22:18:03.010Z,99093.28
2024-02-04T22:23:05.871Z,99095.00
2024-02-04T22:28:08.926Z,99107.16
2024-02-04T22:33:12.528Z,99106.53
2024-02-04T22:38:15.613Z,99097.88
2024-02-04T22:43:18.562Z,99104.41
2024-02-04T22:48:23.135Z,99095.22
2024-02-04T22:53:27.336Z,99085.81
2024-02-04T22:58:30.268Z,99092.53
2024-02-04T23:03:33.453Z,99087.00
2024-02-04T23:08:36.584Z,99086.47
2024-02-04T23:13:40.176Z,99073.72
2024-02-04T23:18:43.245Z,99067.84
2024-02-04T23:23:46.479Z,99076.63
2024-02-04T23:28:49.273Z,99065.19
2024-02-04T23:33:52.165Z,99044.25
2024-02-04T23:38:55.324Z,99051.06
2024-02-04T23:43:58.292Z,99043.72
2024-02-04T23:49:01.304Z,99026.81
2024-02-04T23:54:04.383Z,99022.97
2024-02-04T23:59:07.303Z,99021.59
